Time,TemperatureF,DewpointF,PressureIn,WindDirection,WindDirectionDegrees,WindSpeedMPH,WindSpeedGustMPH,Humidity,HourlyPrecipIn,Conditions,Clouds,dailyrainin,SoftwareType,DateUTC
2013-07-29 00:03:00,81.0,72.7,29.71,ESE,112,0.0,0.0,76,0.00,,---,1.18,VWS V13.01,2013-07-29 04:03:00,
2013-07-29 00:08:00,81.1,72.9,29.71,SE,135,0.0,0.0,76,0.00,,---,1.18,VWS V13.01,2013-07-29 04:08:00,
2013-07-29 00:14:00,81.1,72.9,29.71,SSE,158,0.0,0.0,76,0.00,,---,1.18,VWS V13.01,2013-07-29 04:14:00,
2013-07-29 00:24:00,81.1,72.9,29.71,SSE,158,0.0,0.0,76,0.00,,---,1.18,VWS V13.01,2013-07-29 04:24:00,
2013-07-29 00:33:00,81.1,72.9,29.70,ESE,112,0.0,0.0,76,0.00,,---,1.18,VWS V13.01,2013-07-29 04:33:00,
2013-07-29 00:38:00,81.1,72.9,29.70,ESE,112,0.0,0.0,76,0.00,,---,1.18,VWS V13.01,2013-07-29 04:38:00,
2013-07-29 00:49:00,81.3,72.6,29.70,SSE,158,0.0,0.0,75,0.00,,---,1.18,VWS V13.01,2013-07-29 04:49:00,
2013-07-29 00:54:00,81.3,72.6,29.70,SSE,158,0.0,0.0,75,0.00,,---,1.18,VWS V13.01,2013-07-29 04:54:00,
2013-07-29 00:58:00,81.3,72.6,29.70,SSE,158,0.0,0.0,75,0.00,,---,1.18,VWS V13.01,2013-07-29 04:58:00,
2013-07-29 01:03:00,81.3,73.0,29.70,SSE,158,0.0,0.0,76,0.00,,---,1.18,VWS V13.01,2013-07-29 05:03:00,
2013-07-29 01:09:00,81.3,73.0,29.70,South,180,0.0,0.0,76,0.00,,---,1.18,VWS V13.01,2013-07-29 05:09:00,
2013-07-29 01:19:00,81.3,73.0,29.69,East,90,0.0,1.1,76,0.00,,---,1.18,VWS V13.01,2013-07-29 05:19:00,
2013-07-29 01:28:00,81.3,73.4,29.69,South,180,0.0,5.4,77,0.00,,---,1.18,VWS V13.01,2013-07-29 05:28:00,
2013-07-29 01:38:00,81.3,73.4,29.69,SSE,158,2.5,2.5,77,0.00,,---,1.18,VWS V13.01,2013-07-29 05:38:00,
2013-07-29 01:44:00,81.3,73.4,29.69,South,180,0.0,2.5,77,0.00,,---,1.18,VWS V13.01,2013-07-29 05:44:00,
2013-07-29 01:54:00,81.3,73.4,29.69,ESE,112,3.6,3.6,77,0.00,,---,1.18,VWS V13.01,2013-07-29 05:54:00,
2013-07-29 01:59:00,81.3,73.0,29.68,East,90,0.0,3.6,76,0.00,,---,1.18,VWS V13.01,2013-07-29 05:59:00,
2013-07-29 02:04:00,81.3,73.0,29.68,South,180,0.0,0.0,76,0.00,,---,1.16,VWS V13.01,2013-07-29 06:04:00,
2013-07-29 02:09:00,81.1,72.9,29.68,SE,135,0.0,0.0,76,0.00,,---,1.16,VWS V13.01,2013-07-29 06:09:00,
2013-07-29 02:18:00,81.1,72.9,29.68,East,90,0.0,0.0,76,0.00,,---,1.16,VWS V13.01,2013-07-29 06:18:00,
2013-07-29 02:24:00,81.1,72.9,29.68,ENE,68,0.0,0.0,76,0.00,,---,1.16,VWS V13.01,2013-07-29 06:24:00,
2013-07-29 02:34:00,81.1,72.9,29.68,South,180,0.0,0.0,76,0.00,,---,1.16,VWS V13.01,2013-07-29 06:34:00,
2013-07-29 02:43:00,81.0,72.7,29.68,SE,135,0.0,0.0,76,0.00,,---,1.16,VWS V13.01,2013-07-29 06:43:00,
2013-07-29 02:53:00,81.0,73.1,29.68,SE,135,0.0,0.0,77,0.00,,---,1.16,VWS V13.01,2013-07-29 06:53:00,
2013-07-29 02:59:00,81.0,73.1,29.68,SSW,202,0.0,0.0,77,0.00,,---,1.16,VWS V13.01,2013-07-29 06:59:00,
2013-07-29 03:04:00,80.8,72.9,29.68,SSE,158,0.0,0.0,77,0.00,,---,1.16,VWS V13.01,2013-07-29 07:04:00,
2013-07-29 03:13:00,80.8,72.9,29.68,SSW,202,0.0,0.0,77,0.00,,---,1.16,VWS V13.01,2013-07-29 07:13:00,
2013-07-29 03:18:00,80.6,72.7,29.68,SE,135,0.0,0.0,77,0.00,,---,1.16,VWS V13.01,2013-07-29 07:18:00,
2013-07-29 03:24:00,80.4,72.6,29.68,SE,135,0.0,0.0,77,0.00,,---,1.16,VWS V13.01,2013-07-29 07:24:00,
2013-07-29 03:34:00,80.4,72.6,29.68,SE,135,0.0,0.0,77,0.00,,---,1.16,VWS V13.01,2013-07-29 07:34:00,
2013-07-29 03:43:00,80.2,72.4,29.68,NNW,338,0.0,0.0,77,0.00,,---,1.16,VWS V13.01,2013-07-29 07:43:00,
2013-07-29 03:53:00,79.7,71.9,29.68,North,0,0.0,0.0,77,0.00,,---,1.16,VWS V13.01,2013-07-29 07:53:00,
2013-07-29 03:59:00,79.5,72.1,29.68,NNW,338,0.0,0.0,78,0.00,,---,1.16,VWS V13.01,2013-07-29 07:59:00,
2013-07-29 04:08:00,79.3,72.3,29.68,West,270,2.0,2.2,79,0.00,,---,1.16,VWS V13.01,2013-07-29 08:08:00,
2013-07-29 04:14:00,79.2,71.7,29.68,West,270,0.0,2.0,78,0.00,,---,1.16,VWS V13.01,2013-07-29 08:14:00,
2013-07-29 04:19:00,79.0,71.5,29.68,West,270,0.0,0.0,78,0.00,,---,1.16,VWS V13.01,2013-07-29 08:19:00,
2013-07-29 04:29:00,78.6,70.8,29.68,WNW,292,0.0,0.0,77,0.00,,---,1.16,VWS V13.01,2013-07-29 08:29:00,
2013-07-29 04:39:00,78.6,70.8,29.67,WNW,292,0.0,0.0,77,0.00,,---,1.16,VWS V13.01,2013-07-29 08:39:00,
2013-07-29 04:49:00,78.4,70.6,29.67,WNW,292,0.0,0.0,77,0.00,,---,1.16,VWS V13.01,2013-07-29 08:49:00,
2013-07-29 04:54:00,78.1,70.3,29.67,WNW,292,0.0,0.0,77,0.00,,---,1.16,VWS V13.01,2013-07-29 08:54:00,
2013-07-29 05:03:00,78.1,70.7,29.67,NNW,338,0.0,0.0,78,0.00,,---,1.16,VWS V13.01,2013-07-29 09:03:00,
2013-07-29 05:13:00,77.7,70.3,29.68,North,0,0.0,0.0,78,0.00,,---,1.16,VWS V13.01,2013-07-29 09:13:00,
2013-07-29 05:19:00,77.7,70.3,29.68,NNW,338,0.0,0.0,78,0.00,,---,1.16,VWS V13.01,2013-07-29 09:19:00,
2013-07-29 05:29:00,77.5,69.8,29.68,NNE,22,0.0,0.0,77,0.00,,---,1.16,VWS V13.01,2013-07-29 09:29:00,
2013-07-29 05:38:00,77.4,69.6,29.68,NNW,338,0.0,0.0,77,0.00,,---,1.16,VWS V13.01,2013-07-29 09:38:00,
2013-07-29 05:44:00,77.4,69.6,29.69,NNW,338,0.0,0.0,77,0.00,,---,1.16,VWS V13.01,2013-07-29 09:44:00,
2013-07-29 05:54:00,77.4,69.6,29.69,NNW,338,0.0,0.0,77,0.00,,---,1.16,VWS V13.01,2013-07-29 09:54:00,
2013-07-29 06:08:00,77.2,69.4,29.68,NNW,338,0.0,0.0,77,0.00,,---,1.16,VWS V13.01,2013-07-29 10:08:00,
2013-07-29 06:14:00,77.2,69.8,29.69,NNW,338,0.0,0.0,78,0.00,,---,1.16,VWS V13.01,2013-07-29 10:14:00,
2013-07-29 06:24:00,77.0,69.6,29.69,NNW,338,0.0,0.0,78,0.00,,---,1.16,VWS V13.01,2013-07-29 10:24:00,
2013-07-29 06:33:00,76.8,69.8,29.70,WSW,248,1.6,7.2,79,0.00,,---,1.16,VWS V13.01,2013-07-29 10:33:00,
2013-07-29 06:39:00,76.8,69.4,29.69,WSW,248,0.0,1.6,78,0.04,,---,1.20,VWS V13.01,2013-07-29 10:39:00,
2013-07-29 06:49:00,76.6,69.3,29.70,WNW,292,0.0,0.0,78,0.08,,---,1.24,VWS V13.01,2013-07-29 10:49:00,
2013-07-29 06:59:00,76.6,70.0,29.70,ENE,68,14.8,16.3,80,0.10,,---,1.26,VWS V13.01,2013-07-29 10:59:00,
2013-07-29 07:13:00,76.6,70.0,29.71,ENE,68,0.0,18.1,80,0.10,,---,1.26,VWS V13.01,2013-07-29 11:13:00,
2013-07-29 07:19:00,76.6,70.0,29.71,ENE,68,21.0,21.0,80,0.10,,---,1.26,VWS V13.01,2013-07-29 11:19:00,
2013-07-29 07:33:00,76.5,69.8,29.73,North,0,22.2,22.2,80,0.06,,---,1.26,VWS V13.01,2013-07-29 11:33:00,
2013-07-29 07:39:00,76.6,70.0,29.73,NW,315,14.1,22.2,80,0.06,,---,1.26,VWS V13.01,2013-07-29 11:39:00,
2013-07-29 07:44:00,76.6,70.0,29.73,SW,225,0.0,14.1,80,0.02,,---,1.26,VWS V13.01,2013-07-29 11:44:00,
2013-07-29 07:49:00,76.8,70.2,29.73,SW,225,0.0,0.0,80,0.00,,---,1.26,VWS V13.01,2013-07-29 11:49:00,
2013-07-29 07:58:00,76.8,70.6,29.73,ENE,68,1.6,18.1,81,0.00,,---,1.26,VWS V13.01,2013-07-29 11:58:00,
2013-07-29 08:08:00,77.4,70.7,29.73,ESE,112,0.4,21.0,80,0.00,,---,1.26,VWS V13.01,2013-07-29 12:08:00,
2013-07-29 08:13:00,77.5,70.9,29.73,ESE,112,0.7,0.7,80,0.00,,---,1.26,VWS V13.01,2013-07-29 12:13:00,
2013-07-29 08:19:00,77.7,71.1,29.73,East,90,0.0,0.7,80,0.00,,---,1.26,VWS V13.01,2013-07-29 12:19:00,
2013-07-29 08:28:00,78.1,71.8,29.74,ENE,68,0.0,16.6,81,0.00,,---,1.26,VWS V13.01,2013-07-29 12:28:00,
2013-07-29 08:34:00,78.1,71.8,29.73,ENE,68,0.0,0.0,81,0.00,,---,1.26,VWS V13.01,2013-07-29 12:34:00,
2013-07-29 08:43:00,78.1,71.4,29.73,East,90,0.0,0.0,80,0.00,,---,1.26,VWS V13.01,2013-07-29 12:43:00,
2013-07-29 08:49:00,78.4,71.8,29.74,ESE,112,14.8,14.8,80,0.00,,---,1.26,VWS V13.01,2013-07-29 12:49:00,
2013-07-29 08:54:00,78.4,71.8,29.74,East,90,0.0,14.8,80,0.00,,---,1.26,VWS V13.01,2013-07-29 12:54:00,
2013-07-29 09:03:00,78.6,71.9,29.74,ESE,112,0.0,0.0,80,0.00,,---,1.26,VWS V13.01,2013-07-29 13:03:00,
2013-07-29 09:08:00,78.6,71.9,29.74,ESE,112,0.0,0.0,80,0.00,,---,1.26,VWS V13.01,2013-07-29 13:08:00,
2013-07-29 09:24:00,79.3,72.3,29.75,ENE,68,0.0,0.0,79,0.00,,---,1.26,VWS V13.01,2013-07-29 13:24:00,
2013-07-29 09:29:00,79.5,72.4,29.75,East,90,0.0,0.0,79,0.00,,---,1.26,VWS V13.01,2013-07-29 13:29:00,
2013-07-29 09:38:00,79.7,72.6,29.75,ESE,112,0.0,0.0,79,0.00,,---,1.26,VWS V13.01,2013-07-29 13:38:00,
2013-07-29 09:44:00,79.9,72.8,29.75,ESE,112,0.0,0.0,79,0.00,,---,1.26,VWS V13.01,2013-07-29 13:44:00,
2013-07-29 09:53:00,80.8,74.0,29.75,ESE,112,0.0,0.0,80,0.00,,---,1.26,VWS V13.01,2013-07-29 13:53:00,
2013-07-29 09:59:00,81.1,74.0,29.75,ENE,68,0.0,0.0,79,0.00,,---,1.26,VWS V13.01,2013-07-29 13:59:00,
2013-07-29 10:04:00,81.5,74.0,29.75,ESE,112,0.0,0.0,78,0.00,,---,0.86,VWS V13.01,2013-07-29 14:04:00,
2013-07-29 10:13:00,82.0,74.1,29.76,ESE,112,0.0,0.0,77,0.00,,---,0.86,VWS V13.01,2013-07-29 14:13:00,
2013-07-29 10:19:00,82.0,74.1,29.75,ESE,112,0.0,0.0,77,0.00,,---,0.86,VWS V13.01,2013-07-29 14:19:00,
2013-07-29 10:28:00,83.5,75.1,29.75,ENE,68,0.0,0.0,76,0.00,,---,0.86,VWS V13.01,2013-07-29 14:28:00,
2013-07-29 10:34:00,83.8,75.5,29.76,East,90,0.0,0.0,76,0.00,,---,0.86,VWS V13.01,2013-07-29 14:34:00,
2013-07-29 10:43:00,84.0,74.8,29.76,NE,45,0.0,0.0,74,0.00,,---,0.86,VWS V13.01,2013-07-29 14:43:00,
2013-07-29 10:49:00,84.9,75.7,29.76,NE,45,0.0,0.0,74,0.00,,---,0.86,VWS V13.01,2013-07-29 14:49:00,
2013-07-29 10:59:00,86.2,76.5,29.76,ENE,68,0.0,0.0,73,0.00,,---,0.86,VWS V13.01,2013-07-29 14:59:00,
2013-07-29 11:08:00,87.1,76.5,29.76,East,90,0.0,1.1,71,0.00,,---,0.12,VWS V13.01,2013-07-29 15:08:00,
2013-07-29 11:14:00,87.1,76.5,29.76,SE,135,0.0,0.0,71,0.00,,---,0.12,VWS V13.01,2013-07-29 15:14:00,
2013-07-29 11:24:00,87.6,76.6,29.76,ESE,112,5.8,5.8,70,0.00,,---,0.12,VWS V13.01,2013-07-29 15:24:00,
2013-07-29 11:33:00,87.6,76.2,29.77,ESE,112,4.0,4.0,69,0.00,,---,0.12,VWS V13.01,2013-07-29 15:33:00,
2013-07-29 11:38:00,87.6,75.8,29.76,ESE,112,4.0,4.0,68,0.00,,---,0.12,VWS V13.01,2013-07-29 15:38:00,
2013-07-29 11:53:00,88.0,76.1,29.77,ESE,112,4.0,4.0,68,0.00,,---,0.12,VWS V13.01,2013-07-29 15:53:00,
2013-07-29 11:59:00,88.5,76.2,29.76,East,90,6.5,7.6,67,0.00,,---,0.12,VWS V13.01,2013-07-29 15:59:00,
2013-07-29 12:08:00,88.9,77.0,29.76,NE,45,1.3,6.7,68,0.00,,---,0.12,VWS V13.01,2013-07-29 16:08:00,
2013-07-29 12:14:00,88.9,76.5,29.76,ESE,112,6.3,6.3,67,0.00,,---,0.12,VWS V13.01,2013-07-29 16:14:00,
2013-07-29 12:24:00,89.4,77.0,29.76,NE,45,4.7,4.7,67,0.00,,---,0.12,VWS V13.01,2013-07-29 16:24:00,
2013-07-29 12:33:00,89.4,77.0,29.77,East,90,0.0,5.8,67,0.00,,---,0.12,VWS V13.01,2013-07-29 16:33:00,
2013-07-29 12:38:00,89.8,77.4,29.77,East,90,4.3,4.3,67,0.00,,---,0.12,VWS V13.01,2013-07-29 16:38:00,
2013-07-29 12:43:00,89.4,77.0,29.76,NE,45,3.8,4.3,67,0.00,,---,0.12,VWS V13.01,2013-07-29 16:43:00,
2013-07-29 12:53:00,89.4,77.5,29.77,NNE,22,2.9,10.5,68,0.00,,---,0.12,VWS V13.01,2013-07-29 16:53:00,
2013-07-29 12:59:00,89.4,77.0,29.76,NE,45,2.5,8.5,67,0.00,,---,0.12,VWS V13.01,2013-07-29 16:59:00,
2013-07-29 13:04:00,89.4,77.0,29.76,NE,45,4.5,4.5,67,0.00,,---,0.12,VWS V13.01,2013-07-29 17:04:00,
2013-07-29 13:14:00,89.6,76.7,29.76,East,90,1.8,7.4,66,0.00,,---,0.12,VWS V13.01,2013-07-29 17:14:00,
2013-07-29 13:29:00,89.8,76.9,29.76,ESE,112,0.0,5.1,66,0.00,,---,0.12,VWS V13.01,2013-07-29 17:29:00,
2013-07-29 13:38:00,90.1,77.2,29.76,ESE,112,3.8,3.8,66,0.00,,---,0.12,VWS V13.01,2013-07-29 17:38:00,
2013-07-29 13:43:00,90.1,77.2,29.77,NNE,22,2.5,8.5,66,0.00,,---,0.12,VWS V13.01,2013-07-29 17:43:00,
2013-07-29 13:59:00,90.7,77.3,29.76,ENE,68,7.4,9.2,65,0.00,,---,0.12,VWS V13.01,2013-07-29 17:59:00,
2013-07-29 14:09:00,90.5,76.7,29.76,ENE,68,4.5,4.5,64,0.00,,---,0.12,VWS V13.01,2013-07-29 18:09:00,
2013-07-29 14:18:00,90.1,76.8,29.76,East,90,4.3,8.5,65,0.00,,---,0.12,VWS V13.01,2013-07-29 18:18:00,
2013-07-29 14:24:00,90.1,76.3,29.76,NE,45,6.7,6.7,64,0.00,,---,0.12,VWS V13.01,2013-07-29 18:24:00,
2013-07-29 14:34:00,89.8,76.0,29.76,East,90,6.5,7.2,64,0.00,,---,0.12,VWS V13.01,2013-07-29 18:34:00,
2013-07-29 14:43:00,90.1,76.8,29.75,NE,45,1.8,9.6,65,0.00,,---,0.12,VWS V13.01,2013-07-29 18:43:00,
2013-07-29 14:48:00,90.3,76.5,29.75,East,90,2.9,2.9,64,0.00,,---,0.12,VWS V13.01,2013-07-29 18:48:00,
2013-07-29 14:54:00,90.5,76.7,29.75,ESE,112,6.7,6.7,64,0.00,,---,0.12,VWS V13.01,2013-07-29 18:54:00,
2013-07-29 15:04:00,90.3,76.5,29.74,WSW,248,2.2,5.4,64,0.00,,---,0.12,VWS V13.01,2013-07-29 19:04:00,
2013-07-29 15:19:00,90.1,76.8,29.74,WSW,248,10.1,10.5,65,0.00,,---,0.12,VWS V13.01,2013-07-29 19:19:00,
2013-07-29 15:28:00,90.1,76.3,29.74,NE,45,8.1,8.1,64,0.00,,---,0.12,VWS V13.01,2013-07-29 19:28:00,
2013-07-29 15:38:00,89.4,76.6,29.74,ESE,112,7.2,11.4,66,0.00,,---,0.12,VWS V13.01,2013-07-29 19:38:00,
2013-07-29 15:44:00,88.5,76.2,29.74,ESE,112,6.3,7.2,67,0.00,,---,0.12,VWS V13.01,2013-07-29 19:44:00,
2013-07-29 15:53:00,88.0,75.7,29.74,ENE,68,0.2,0.2,67,0.00,,---,0.12,VWS V13.01,2013-07-29 19:53:00,
2013-07-29 16:03:00,87.3,75.4,29.73,ENE,68,11.0,12.1,68,0.00,,---,0.12,VWS V13.01,2013-07-29 20:03:00,
2013-07-29 16:08:00,87.4,75.6,29.74,ESE,112,2.0,11.0,68,0.00,,---,0.12,VWS V13.01,2013-07-29 20:08:00,
2013-07-29 16:19:00,87.1,75.2,29.74,ESE,112,6.3,7.6,68,0.00,,---,0.12,VWS V13.01,2013-07-29 20:19:00,
2013-07-29 16:29:00,87.1,75.2,29.74,SE,135,1.8,4.3,68,0.00,,---,0.12,VWS V13.01,2013-07-29 20:29:00,
2013-07-29 16:38:00,87.6,75.3,29.74,ENE,68,0.0,7.2,67,0.00,,---,0.12,VWS V13.01,2013-07-29 20:38:00,
2013-07-29 16:48:00,87.6,74.9,29.74,ESE,112,0.0,1.6,66,0.00,,---,0.12,VWS V13.01,2013-07-29 20:48:00,
2013-07-29 16:54:00,87.4,74.7,29.75,ESE,112,0.4,0.4,66,0.00,,---,0.12,VWS V13.01,2013-07-29 20:54:00,
2013-07-29 16:59:00,87.1,74.8,29.74,ENE,68,0.0,0.4,67,0.00,,---,0.12,VWS V13.01,2013-07-29 20:59:00,
2013-07-29 17:09:00,87.3,74.5,29.74,ESE,112,6.9,8.3,66,0.00,,---,0.12,VWS V13.01,2013-07-29 21:09:00,
2013-07-29 17:18:00,87.1,74.3,29.75,East,90,2.5,2.5,66,0.00,,---,0.12,VWS V13.01,2013-07-29 21:18:00,
2013-07-29 17:24:00,86.7,74.0,29.74,ENE,68,0.0,5.6,66,0.00,,---,0.12,VWS V13.01,2013-07-29 21:24:00,
2013-07-29 17:33:00,86.2,73.0,29.74,East,90,3.8,4.0,65,0.00,,---,0.12,VWS V13.01,2013-07-29 21:33:00,
2013-07-29 17:38:00,86.0,72.9,29.73,ESE,112,3.6,3.8,65,0.00,,---,0.12,VWS V13.01,2013-07-29 21:38:00,
2013-07-29 17:54:00,85.8,74.0,29.73,East,90,4.3,4.3,68,0.00,,---,0.12,VWS V13.01,2013-07-29 21:54:00,
2013-07-29 18:09:00,85.6,73.4,29.72,ESE,112,0.0,0.0,67,0.00,,---,0.10,VWS V13.01,2013-07-29 22:09:00,
2013-07-29 18:23:00,85.1,72.9,29.72,NE,45,0.0,0.0,67,0.00,,---,0.10,VWS V13.01,2013-07-29 22:23:00,
2013-07-29 18:29:00,85.1,72.9,29.73,NE,45,0.0,0.0,67,0.00,,---,0.10,VWS V13.01,2013-07-29 22:29:00,
2013-07-29 18:38:00,84.9,73.6,29.73,NE,45,0.0,0.0,69,0.00,,---,0.10,VWS V13.01,2013-07-29 22:38:00,
2013-07-29 18:44:00,84.9,73.6,29.73,East,90,3.8,3.8,69,0.00,,---,0.10,VWS V13.01,2013-07-29 22:44:00,
2013-07-29 18:59:00,84.6,74.1,29.73,East,90,2.0,2.0,71,0.00,,---,0.10,VWS V13.01,2013-07-29 22:59:00,
2013-07-29 19:09:00,84.4,73.5,29.73,ENE,68,0.0,4.0,70,0.00,,---,0.10,VWS V13.01,2013-07-29 23:09:00,
2013-07-29 19:18:00,84.0,73.6,29.73,East,90,1.6,7.2,71,0.00,,---,0.10,VWS V13.01,2013-07-29 23:18:00,
2013-07-29 19:29:00,83.8,73.8,29.74,East,90,0.7,2.7,72,0.00,,---,0.10,VWS V13.01,2013-07-29 23:29:00,
2013-07-29 19:38:00,83.8,73.4,29.74,ENE,68,0.0,0.7,71,0.00,,---,0.10,VWS V13.01,2013-07-29 23:38:00,
2013-07-29 19:44:00,83.8,73.4,29.75,East,90,0.0,0.0,71,0.00,,---,0.10,VWS V13.01,2013-07-29 23:44:00,
2013-07-29 19:53:00,83.7,73.3,29.75,ESE,112,0.0,2.5,71,0.00,,---,0.10,VWS V13.01,2013-07-29 23:53:00,
2013-07-29 20:03:00,83.7,73.3,29.75,ESE,112,0.0,0.0,71,0.00,,---,0.10,VWS V13.01,2013-07-30 00:03:00,
2013-07-29 20:13:00,83.5,73.5,29.76,ESE,112,0.0,0.0,72,0.00,,---,0.10,VWS V13.01,2013-07-30 00:13:00,
2013-07-29 20:19:00,83.5,73.5,29.76,ESE,112,0.0,0.2,72,0.00,,---,0.10,VWS V13.01,2013-07-30 00:19:00,
2013-07-29 20:28:00,83.3,73.3,29.76,ESE,112,0.0,1.6,72,0.00,,---,0.10,VWS V13.01,2013-07-30 00:28:00,
2013-07-29 20:39:00,83.1,73.2,29.76,ESE,112,0.0,6.7,72,0.00,,---,0.10,VWS V13.01,2013-07-30 00:39:00,
2013-07-29 20:48:00,83.1,73.2,29.77,ESE,112,2.2,2.2,72,0.00,,---,0.10,VWS V13.01,2013-07-30 00:48:00,
2013-07-29 20:54:00,83.1,73.6,29.77,ENE,68,0.0,2.2,73,0.00,,---,0.10,VWS V13.01,2013-07-30 00:54:00,
2013-07-29 21:04:00,82.9,73.4,29.77,SE,135,5.8,5.8,73,0.00,,---,0.10,VWS V13.01,2013-07-30 01:04:00,
2013-07-29 21:14:00,82.9,73.8,29.77,SE,135,0.2,7.2,74,0.00,,---,0.10,VWS V13.01,2013-07-30 01:14:00,
2013-07-29 21:23:00,82.9,73.8,29.78,East,90,0.2,3.4,74,0.00,,---,0.10,VWS V13.01,2013-07-30 01:23:00,
2013-07-29 21:34:00,82.9,73.8,29.78,ESE,112,0.0,1.8,74,0.00,,---,0.10,VWS V13.01,2013-07-30 01:34:00,
2013-07-29 21:43:00,82.9,73.8,29.78,ESE,112,0.0,2.9,74,0.00,,---,0.10,VWS V13.01,2013-07-30 01:43:00,
2013-07-29 21:54:00,82.8,74.0,29.78,ESE,112,0.0,1.3,75,0.00,,---,0.10,VWS V13.01,2013-07-30 01:54:00,
2013-07-29 22:08:00,82.8,74.0,29.79,ESE,112,0.0,6.0,75,0.00,,---,0.10,VWS V13.01,2013-07-30 02:08:00,
2013-07-29 22:14:00,82.8,74.0,29.79,East,90,2.9,2.9,75,0.00,,---,0.10,VWS V13.01,2013-07-30 02:14:00,
2013-07-29 22:19:00,82.8,74.0,29.78,ESE,112,0.4,2.9,75,0.00,,---,0.10,VWS V13.01,2013-07-30 02:19:00,
2013-07-29 22:28:00,82.6,73.9,29.78,ESE,112,3.1,3.1,75,0.00,,---,0.10,VWS V13.01,2013-07-30 02:28:00,
2013-07-29 22:34:00,82.8,74.0,29.78,ENE,68,0.7,3.1,75,0.00,,---,0.10,VWS V13.01,2013-07-30 02:34:00,
2013-07-29 22:44:00,82.6,73.9,29.78,East,90,0.0,0.7,75,0.00,,---,0.10,VWS V13.01,2013-07-30 02:44:00,
2013-07-29 22:53:00,82.6,73.9,29.78,ESE,112,0.0,0.0,75,0.00,,---,0.10,VWS V13.01,2013-07-30 02:53:00,
2013-07-29 22:59:00,82.6,73.9,29.78,ESE,112,0.0,0.0,75,0.00,,---,0.10,VWS V13.01,2013-07-30 02:59:00,
2013-07-29 23:08:00,82.6,73.9,29.78,East,90,5.6,5.6,75,0.00,,---,0.10,VWS V13.01,2013-07-30 03:08:00,
2013-07-29 23:14:00,82.6,73.9,29.78,ESE,112,2.2,5.6,75,0.00,,---,0.10,VWS V13.01,2013-07-30 03:14:00,
2013-07-29 23:29:00,82.6,74.2,29.78,SE,135,1.1,1.1,76,0.00,,---,0.10,VWS V13.01,2013-07-30 03:29:00,
2013-07-29 23:48:00,82.6,73.9,29.78,ESE,112,0.0,0.0,75,0.00,,---,0.10,VWS V13.01,2013-07-30 03:48:00,
2013-07-29 23:53:00,82.6,73.9,29.78,East,90,0.0,1.6,75,0.00,,---,0.10,VWS V13.01,2013-07-30 03:53:00,
2013-07-29 23:59:00,82.6,73.9,29.78,ESE,112,2.9,2.9,75,0.00,,---,0.10,VWS V13.01,2013-07-30 03:59:00,